sensor_id;sensor_type;location;lat;lon;timestamp;P1;durP1;ratioP1;P2;durP2;ratioP2
30818;SDS011;17546;42.674;23.284;2022-10-31T00:00:54;9.27;;;3.30;;
30818;SDS011;17546;42.674;23.284;2022-10-31T00:03:19;9.95;;;3.72;;
30818;SDS011;17546;42.674;23.284;2022-10-31T00:05:46;10.70;;;3.50;;
30818;SDS011;17546;42.674;23.284;2022-10-31T00:08:13;8.50;;;3.28;;
30818;SDS011;17546;42.674;23.284;2022-10-31T00:10:41;12.02;;;3.05;;
30818;SDS011;17546;42.674;23.284;2022-10-31T00:13:07;11.07;;;3.75;;
30818;SDS011;17546;42.674;23.284;2022-10-31T00:15:35;9.00;;;3.60;;
30818;SDS011;17546;42.674;23.284;2022-10-31T00:18:04;10.68;;;3.25;;
30818;SDS011;17546;42.674;23.284;2022-10-31T00:20:30;11.20;;;3.47;;
30818;SDS011;17546;42.674;23.284;2022-10-31T00:23:03;7.53;;;3.00;;
30818;SDS011;17546;42.674;23.284;2022-10-31T00:25:32;7.53;;;2.88;;
30818;SDS011;17546;42.674;23.284;2022-10-31T00:27:59;8.77;;;3.45;;
30818;SDS011;17546;42.674;23.284;2022-10-31T00:30:24;11.55;;;4.00;;
30818;SDS011;17546;42.674;23.284;2022-10-31T00:32:49;15.52;;;3.65;;
30818;SDS011;17546;42.674;23.284;2022-10-31T00:35:15;13.70;;;3.50;;
30818;SDS011;17546;42.674;23.284;2022-10-31T00:37:40;7.03;;;3.17;;
30818;SDS011;17546;42.674;23.284;2022-10-31T00:40:06;10.68;;;3.30;;
30818;SDS011;17546;42.674;23.284;2022-10-31T00:42:31;8.52;;;3.30;;
30818;SDS011;17546;42.674;23.284;2022-10-31T00:44:57;9.40;;;3.67;;
30818;SDS011;17546;42.674;23.284;2022-10-31T00:47:22;15.75;;;3.38;;
30818;SDS011;17546;42.674;23.284;2022-10-31T00:49:48;11.35;;;3.20;;
30818;SDS011;17546;42.674;23.284;2022-10-31T00:52:13;12.05;;;3.50;;
30818;SDS011;17546;42.674;23.284;2022-10-31T00:54:38;5.75;;;3.00;;
30818;SDS011;17546;42.674;23.284;2022-10-31T00:57:04;9.70;;;3.53;;
30818;SDS011;17546;42.674;23.284;2022-10-31T00:59:29;11.27;;;3.75;;
30818;SDS011;17546;42.674;23.284;2022-10-31T01:01:55;7.80;;;3.28;;
30818;SDS011;17546;42.674;23.284;2022-10-31T01:04:20;12.57;;;3.63;;
30818;SDS011;17546;42.674;23.284;2022-10-31T01:06:45;15.98;;;3.38;;
30818;SDS011;17546;42.674;23.284;2022-10-31T01:09:11;12.10;;;3.40;;
30818;SDS011;17546;42.674;23.284;2022-10-31T01:11:36;8.00;;;3.08;;
30818;SDS011;17546;42.674;23.284;2022-10-31T01:14:02;7.47;;;3.15;;
30818;SDS011;17546;42.674;23.284;2022-10-31T01:16:27;10.93;;;3.47;;
30818;SDS011;17546;42.674;23.284;2022-10-31T01:18:54;8.15;;;3.22;;
30818;SDS011;17546;42.674;23.284;2022-10-31T01:21:21;7.82;;;3.47;;
30818;SDS011;17546;42.674;23.284;2022-10-31T01:23:49;8.88;;;3.17;;
30818;SDS011;17546;42.674;23.284;2022-10-31T01:28:46;7.03;;;3.25;;
30818;SDS011;17546;42.674;23.284;2022-10-31T01:31:15;10.15;;;3.53;;
30818;SDS011;17546;42.674;23.284;2022-10-31T01:33:42;7.53;;;3.90;;
30818;SDS011;17546;42.674;23.284;2022-10-31T01:38:39;10.48;;;3.70;;
30818;SDS011;17546;42.674;23.284;2022-10-31T01:41:04;10.98;;;3.88;;
30818;SDS011;17546;42.674;23.284;2022-10-31T01:46:14;9.30;;;4.20;;
30818;SDS011;17546;42.674;23.284;2022-10-31T01:48:44;13.10;;;4.50;;
30818;SDS011;17546;42.674;23.284;2022-10-31T01:51:11;10.77;;;4.32;;
30818;SDS011;17546;42.674;23.284;2022-10-31T01:53:39;12.05;;;3.80;;
30818;SDS011;17546;42.674;23.284;2022-10-31T01:56:07;9.70;;;4.00;;
30818;SDS011;17546;42.674;23.284;2022-10-31T01:58:33;12.05;;;4.45;;
30818;SDS011;17546;42.674;23.284;2022-10-31T02:01:00;11.57;;;4.13;;
30818;SDS011;17546;42.674;23.284;2022-10-31T02:03:27;15.05;;;4.75;;
30818;SDS011;17546;42.674;23.284;2022-10-31T02:05:56;8.88;;;4.40;;
30818;SDS011;17546;42.674;23.284;2022-10-31T02:08:30;10.43;;;4.05;;
30818;SDS011;17546;42.674;23.284;2022-10-31T02:13:24;10.57;;;4.63;;
30818;SDS011;17546;42.674;23.284;2022-10-31T02:15:54;11.20;;;4.82;;
30818;SDS011;17546;42.674;23.284;2022-10-31T02:18:22;15.38;;;4.50;;
30818;SDS011;17546;42.674;23.284;2022-10-31T02:32:21;14.95;;;5.70;;
30818;SDS011;17546;42.674;23.284;2022-10-31T02:40:32;16.65;;;5.43;;
30818;SDS011;17546;42.674;23.284;2022-10-31T02:43:12;12.85;;;5.28;;
30818;SDS011;17546;42.674;23.284;2022-10-31T02:45:41;12.77;;;5.68;;
30818;SDS011;17546;42.674;23.284;2022-10-31T02:48:14;10.73;;;5.00;;
30818;SDS011;17546;42.674;23.284;2022-10-31T02:50:46;12.73;;;5.45;;
30818;SDS011;17546;42.674;23.284;2022-10-31T02:53:21;10.73;;;5.47;;
30818;SDS011;17546;42.674;23.284;2022-10-31T02:55:49;14.93;;;5.10;;
30818;SDS011;17546;42.674;23.284;2022-10-31T02:58:16;9.25;;;5.32;;
30818;SDS011;17546;42.674;23.284;2022-10-31T03:00:57;12.52;;;5.80;;
30818;SDS011;17546;42.674;23.284;2022-10-31T03:04:03;10.52;;;5.40;;
30818;SDS011;17546;42.674;23.284;2022-10-31T03:09:26;11.57;;;4.82;;
30818;SDS011;17546;42.674;23.284;2022-10-31T03:12:09;12.80;;;5.68;;
30818;SDS011;17546;42.674;23.284;2022-10-31T03:14:51;10.77;;;6.03;;
30818;SDS011;17546;42.674;23.284;2022-10-31T03:17:36;13.40;;;5.97;;
30818;SDS011;17546;42.674;23.284;2022-10-31T03:20:04;17.27;;;5.65;;
30818;SDS011;17546;42.674;23.284;2022-10-31T03:22:33;11.38;;;5.18;;
30818;SDS011;17546;42.674;23.284;2022-10-31T03:25:02;17.02;;;5.70;;
30818;SDS011;17546;42.674;23.284;2022-10-31T03:27:30;11.50;;;5.93;;
30818;SDS011;17546;42.674;23.284;2022-10-31T03:30:00;11.48;;;5.80;;
30818;SDS011;17546;42.674;23.284;2022-10-31T03:35:06;13.18;;;5.82;;
30818;SDS011;17546;42.674;23.284;2022-10-31T03:37:35;15.40;;;5.60;;
30818;SDS011;17546;42.674;23.284;2022-10-31T03:40:02;14.90;;;5.78;;
30818;SDS011;17546;42.674;23.284;2022-10-31T03:42:37;9.48;;;5.13;;
30818;SDS011;17546;42.674;23.284;2022-10-31T03:47:40;11.73;;;5.38;;
30818;SDS011;17546;42.674;23.284;2022-10-31T03:50:07;10.00;;;5.07;;
30818;SDS011;17546;42.674;23.284;2022-10-31T03:55:52;11.68;;;5.40;;
30818;SDS011;17546;42.674;23.284;2022-10-31T03:58:30;13.45;;;5.68;;
30818;SDS011;17546;42.674;23.284;2022-10-31T04:01:02;15.75;;;5.40;;
30818;SDS011;17546;42.674;23.284;2022-10-31T04:03:31;14.10;;;5.45;;
30818;SDS011;17546;42.674;23.284;2022-10-31T04:05:59;12.95;;;6.05;;
30818;SDS011;17546;42.674;23.284;2022-10-31T04:08:30;12.80;;;5.95;;
30818;SDS011;17546;42.674;23.284;2022-10-31T04:10:59;12.85;;;5.80;;
30818;SDS011;17546;42.674;23.284;2022-10-31T04:13:27;13.45;;;5.95;;
30818;SDS011;17546;42.674;23.284;2022-10-31T04:15:55;15.93;;;6.05;;
30818;SDS011;17546;42.674;23.284;2022-10-31T04:18:24;13.40;;;5.82;;
30818;SDS011;17546;42.674;23.284;2022-10-31T04:20:58;14.00;;;6.20;;
30818;SDS011;17546;42.674;23.284;2022-10-31T04:23:25;25.05;;;6.57;;
30818;SDS011;17546;42.674;23.284;2022-10-31T04:25:51;12.73;;;6.28;;
30818;SDS011;17546;42.674;23.284;2022-10-31T04:28:17;12.02;;;6.15;;
30818;SDS011;17546;42.674;23.284;2022-10-31T04:30:43;21.20;;;7.10;;
30818;SDS011;17546;42.674;23.284;2022-10-31T04:33:08;14.68;;;7.00;;
30818;SDS011;17546;42.674;23.284;2022-10-31T04:35:33;13.55;;;6.55;;
30818;SDS011;17546;42.674;23.284;2022-10-31T04:37:59;13.35;;;6.50;;
30818;SDS011;17546;42.674;23.284;2022-10-31T04:40:24;21.02;;;6.35;;
30818;SDS011;17546;42.674;23.284;2022-10-31T04:42:50;17.40;;;6.78;;
30818;SDS011;17546;42.674;23.284;2022-10-31T04:45:15;21.27;;;8.48;;
30818;SDS011;17546;42.674;23.284;2022-10-31T04:47:40;24.42;;;8.68;;
30818;SDS011;17546;42.674;23.284;2022-10-31T04:50:06;20.48;;;8.18;;
30818;SDS011;17546;42.674;23.284;2022-10-31T04:52:32;21.48;;;8.32;;
30818;SDS011;17546;42.674;23.284;2022-10-31T04:54:58;25.65;;;8.35;;
30818;SDS011;17546;42.674;23.284;2022-10-31T04:57:23;19.40;;;8.05;;
30818;SDS011;17546;42.674;23.284;2022-10-31T04:59:49;23.60;;;8.52;;
30818;SDS011;17546;42.674;23.284;2022-10-31T05:02:14;22.92;;;9.63;;
30818;SDS011;17546;42.674;23.284;2022-10-31T05:04:39;21.02;;;9.07;;
30818;SDS011;17546;42.674;23.284;2022-10-31T05:07:05;22.98;;;9.02;;
30818;SDS011;17546;42.674;23.284;2022-10-31T05:09:30;18.63;;;8.60;;
30818;SDS011;17546;42.674;23.284;2022-10-31T05:11:56;19.00;;;8.25;;
30818;SDS011;17546;42.674;23.284;2022-10-31T05:14:21;19.48;;;8.43;;
30818;SDS011;17546;42.674;23.284;2022-10-31T05:16:46;20.35;;;8.85;;
30818;SDS011;17546;42.674;23.284;2022-10-31T05:19:12;23.35;;;8.35;;
30818;SDS011;17546;42.674;23.284;2022-10-31T05:21:37;20.55;;;9.00;;
30818;SDS011;17546;42.674;23.284;2022-10-31T05:24:03;20.65;;;8.48;;
30818;SDS011;17546;42.674;23.284;2022-10-31T05:26:28;27.00;;;9.48;;
30818;SDS011;17546;42.674;23.284;2022-10-31T05:28:55;21.20;;;8.90;;
30818;SDS011;17546;42.674;23.284;2022-10-31T05:31:21;22.00;;;8.93;;
30818;SDS011;17546;42.674;23.284;2022-10-31T05:33:46;17.52;;;8.75;;
30818;SDS011;17546;42.674;23.284;2022-10-31T05:36:11;22.63;;;9.07;;
30818;SDS011;17546;42.674;23.284;2022-10-31T05:38:37;26.88;;;10.15;;
30818;SDS011;17546;42.674;23.284;2022-10-31T05:41:02;27.77;;;9.10;;
30818;SDS011;17546;42.674;23.284;2022-10-31T05:43:28;26.48;;;10.73;;
30818;SDS011;17546;42.674;23.284;2022-10-31T05:45:54;31.17;;;10.43;;
30818;SDS011;17546;42.674;23.284;2022-10-31T05:48:20;24.45;;;10.32;;
30818;SDS011;17546;42.674;23.284;2022-10-31T05:50:47;30.40;;;10.85;;
30818;SDS011;17546;42.674;23.284;2022-10-31T05:53:13;30.70;;;11.43;;
30818;SDS011;17546;42.674;23.284;2022-10-31T05:55:39;26.23;;;11.55;;
30818;SDS011;17546;42.674;23.284;2022-10-31T05:58:05;25.40;;;11.48;;
30818;SDS011;17546;42.674;23.284;2022-10-31T06:00:32;46.80;;;12.10;;
30818;SDS011;17546;42.674;23.284;2022-10-31T06:03:03;27.20;;;12.25;;
30818;SDS011;17546;42.674;23.284;2022-10-31T06:05:31;24.52;;;11.90;;
30818;SDS011;17546;42.674;23.284;2022-10-31T06:07:56;31.05;;;12.02;;
30818;SDS011;17546;42.674;23.284;2022-10-31T06:10:22;27.48;;;11.68;;
30818;SDS011;17546;42.674;23.284;2022-10-31T06:12:48;36.78;;;12.65;;
30818;SDS011;17546;42.674;23.284;2022-10-31T06:15:14;34.70;;;12.18;;
30818;SDS011;17546;42.674;23.284;2022-10-31T06:17:39;32.55;;;12.02;;
30818;SDS011;17546;42.674;23.284;2022-10-31T06:20:05;31.33;;;12.50;;
30818;SDS011;17546;42.674;23.284;2022-10-31T06:22:31;30.17;;;12.50;;
30818;SDS011;17546;42.674;23.284;2022-10-31T06:24:57;35.35;;;14.00;;
30818;SDS011;17546;42.674;23.284;2022-10-31T06:27:22;35.20;;;13.70;;
30818;SDS011;17546;42.674;23.284;2022-10-31T06:29:48;34.25;;;13.38;;
30818;SDS011;17546;42.674;23.284;2022-10-31T06:32:14;35.60;;;14.55;;
30818;SDS011;17546;42.674;23.284;2022-10-31T06:34:40;41.60;;;14.45;;
30818;SDS011;17546;42.674;23.284;2022-10-31T06:37:06;31.25;;;12.95;;
30818;SDS011;17546;42.674;23.284;2022-10-31T06:39:33;33.58;;;15.00;;
30818;SDS011;17546;42.674;23.284;2022-10-31T06:41:59;36.45;;;13.55;;
30818;SDS011;17546;42.674;23.284;2022-10-31T06:44:24;33.40;;;13.40;;
30818;SDS011;17546;42.674;23.284;2022-10-31T06:46:49;30.80;;;12.75;;
30818;SDS011;17546;42.674;23.284;2022-10-31T06:49:15;28.83;;;13.27;;
30818;SDS011;17546;42.674;23.284;2022-10-31T06:51:41;29.40;;;13.38;;
30818;SDS011;17546;42.674;23.284;2022-10-31T06:54:06;37.17;;;13.65;;
30818;SDS011;17546;42.674;23.284;2022-10-31T06:56:32;32.42;;;12.88;;
30818;SDS011;17546;42.674;23.284;2022-10-31T06:58:57;22.73;;;12.88;;
30818;SDS011;17546;42.674;23.284;2022-10-31T07:01:23;31.80;;;12.90;;
30818;SDS011;17546;42.674;23.284;2022-10-31T07:03:48;29.80;;;12.32;;
30818;SDS011;17546;42.674;23.284;2022-10-31T07:06:13;36.25;;;12.85;;
30818;SDS011;17546;42.674;23.284;2022-10-31T07:08:39;41.42;;;14.27;;
30818;SDS011;17546;42.674;23.284;2022-10-31T07:11:04;37.35;;;14.35;;
30818;SDS011;17546;42.674;23.284;2022-10-31T07:13:30;27.35;;;13.68;;
30818;SDS011;17546;42.674;23.284;2022-10-31T07:15:59;24.33;;;13.27;;
30818;SDS011;17546;42.674;23.284;2022-10-31T07:18:26;25.00;;;12.80;;
30818;SDS011;17546;42.674;23.284;2022-10-31T07:20:52;30.73;;;13.40;;
30818;SDS011;17546;42.674;23.284;2022-10-31T07:23:18;29.35;;;13.35;;
30818;SDS011;17546;42.674;23.284;2022-10-31T07:25:44;33.17;;;14.25;;
30818;SDS011;17546;42.674;23.284;2022-10-31T07:28:09;25.77;;;14.38;;
30818;SDS011;17546;42.674;23.284;2022-10-31T07:30:35;33.97;;;13.93;;
30818;SDS011;17546;42.674;23.284;2022-10-31T07:33:01;27.92;;;15.23;;
30818;SDS011;17546;42.674;23.284;2022-10-31T07:35:28;39.65;;;15.02;;
30818;SDS011;17546;42.674;23.284;2022-10-31T07:37:54;31.13;;;14.45;;
30818;SDS011;17546;42.674;23.284;2022-10-31T07:40:20;28.52;;;15.23;;
30818;SDS011;17546;42.674;23.284;2022-10-31T07:42:48;39.38;;;14.98;;
30818;SDS011;17546;42.674;23.284;2022-10-31T07:45:17;34.50;;;15.35;;
30818;SDS011;17546;42.674;23.284;2022-10-31T07:47:50;39.30;;;16.40;;
30818;SDS011;17546;42.674;23.284;2022-10-31T07:50:18;36.78;;;15.95;;
30818;SDS011;17546;42.674;23.284;2022-10-31T07:52:44;33.33;;;16.45;;
30818;SDS011;17546;42.674;23.284;2022-10-31T07:55:10;36.78;;;16.55;;
30818;SDS011;17546;42.674;23.284;2022-10-31T07:57:36;35.97;;;16.45;;
30818;SDS011;17546;42.674;23.284;2022-10-31T08:00:05;35.95;;;16.98;;
30818;SDS011;17546;42.674;23.284;2022-10-31T08:02:32;38.20;;;16.45;;
30818;SDS011;17546;42.674;23.284;2022-10-31T08:04:58;46.28;;;17.77;;
30818;SDS011;17546;42.674;23.284;2022-10-31T08:07:24;39.10;;;17.55;;
30818;SDS011;17546;42.674;23.284;2022-10-31T08:09:50;60.15;;;16.67;;
30818;SDS011;17546;42.674;23.284;2022-10-31T08:12:16;33.63;;;15.52;;
30818;SDS011;17546;42.674;23.284;2022-10-31T08:14:41;36.95;;;14.77;;
30818;SDS011;17546;42.674;23.284;2022-10-31T08:17:06;33.40;;;16.30;;
30818;SDS011;17546;42.674;23.284;2022-10-31T08:19:32;28.17;;;15.60;;
30818;SDS011;17546;42.674;23.284;2022-10-31T08:21:57;39.10;;;14.88;;
30818;SDS011;17546;42.674;23.284;2022-10-31T08:24:23;31.73;;;14.23;;
30818;SDS011;17546;42.674;23.284;2022-10-31T08:26:49;31.50;;;14.85;;
30818;SDS011;17546;42.674;23.284;2022-10-31T08:29:14;27.88;;;13.75;;
30818;SDS011;17546;42.674;23.284;2022-10-31T08:31:40;28.08;;;13.15;;
30818;SDS011;17546;42.674;23.284;2022-10-31T08:34:06;35.10;;;15.05;;
30818;SDS011;17546;42.674;23.284;2022-10-31T08:36:32;34.85;;;14.13;;
30818;SDS011;17546;42.674;23.284;2022-10-31T08:38:58;38.35;;;15.27;;
30818;SDS011;17546;42.674;23.284;2022-10-31T08:41:23;34.78;;;14.68;;
30818;SDS011;17546;42.674;23.284;2022-10-31T08:43:49;34.60;;;14.40;;
30818;SDS011;17546;42.674;23.284;2022-10-31T08:46:14;28.55;;;12.63;;
30818;SDS011;17546;42.674;23.284;2022-10-31T08:48:40;25.17;;;12.25;;
30818;SDS011;17546;42.674;23.284;2022-10-31T08:51:06;24.75;;;9.60;;
30818;SDS011;17546;42.674;23.284;2022-10-31T08:53:31;22.40;;;9.90;;
30818;SDS011;17546;42.674;23.284;2022-10-31T08:55:57;19.67;;;9.43;;
30818;SDS011;17546;42.674;23.284;2022-10-31T08:58:23;18.50;;;9.35;;
30818;SDS011;17546;42.674;23.284;2022-10-31T09:00:51;19.15;;;9.02;;
30818;SDS011;17546;42.674;23.284;2022-10-31T09:03:20;18.15;;;9.20;;
30818;SDS011;17546;42.674;23.284;2022-10-31T09:05:50;27.55;;;9.93;;
30818;SDS011;17546;42.674;23.284;2022-10-31T09:08:16;22.30;;;10.27;;
30818;SDS011;17546;42.674;23.284;2022-10-31T09:10:42;30.13;;;10.70;;
30818;SDS011;17546;42.674;23.284;2022-10-31T09:13:14;25.80;;;10.93;;
30818;SDS011;17546;42.674;23.284;2022-10-31T09:15:42;21.90;;;9.88;;
30818;SDS011;17546;42.674;23.284;2022-10-31T09:18:09;26.30;;;9.35;;
30818;SDS011;17546;42.674;23.284;2022-10-31T09:20:35;24.20;;;10.05;;
30818;SDS011;17546;42.674;23.284;2022-10-31T09:23:03;27.42;;;11.30;;
30818;SDS011;17546;42.674;23.284;2022-10-31T09:25:34;25.60;;;11.60;;
30818;SDS011;17546;42.674;23.284;2022-10-31T09:28:01;23.40;;;9.70;;
30818;SDS011;17546;42.674;23.284;2022-10-31T09:30:29;19.48;;;9.35;;
30818;SDS011;17546;42.674;23.284;2022-10-31T09:32:56;23.00;;;9.55;;
30818;SDS011;17546;42.674;23.284;2022-10-31T09:35:23;24.45;;;9.45;;
30818;SDS011;17546;42.674;23.284;2022-10-31T09:40:21;22.58;;;8.48;;
30818;SDS011;17546;42.674;23.284;2022-10-31T09:51:03;19.75;;;7.30;;
30818;SDS011;17546;42.674;23.284;2022-10-31T09:56:04;17.75;;;7.43;;
30818;SDS011;17546;42.674;23.284;2022-10-31T09:58:34;14.07;;;6.28;;
30818;SDS011;17546;42.674;23.284;2022-10-31T10:01:14;12.80;;;6.45;;
30818;SDS011;17546;42.674;23.284;2022-10-31T10:03:57;18.60;;;7.00;;
30818;SDS011;17546;42.674;23.284;2022-10-31T10:06:29;18.75;;;7.57;;
30818;SDS011;17546;42.674;23.284;2022-10-31T10:08:59;22.70;;;7.07;;
30818;SDS011;17546;42.674;23.284;2022-10-31T10:27:47;10.77;;;4.72;;
30818;SDS011;17546;42.674;23.284;2022-10-31T10:30:39;10.50;;;4.50;;
30818;SDS011;17546;42.674;23.284;2022-10-31T10:33:09;16.95;;;4.35;;
30818;SDS011;17546;42.674;23.284;2022-10-31T10:35:53;10.02;;;4.03;;
30818;SDS011;17546;42.674;23.284;2022-10-31T10:41:17;7.78;;;3.72;;
30818;SDS011;17546;42.674;23.284;2022-10-31T10:43:48;11.23;;;3.47;;
30818;SDS011;17546;42.674;23.284;2022-10-31T10:46:19;12.05;;;3.78;;
30818;SDS011;17546;42.674;23.284;2022-10-31T10:59:57;13.88;;;3.78;;
30818;SDS011;17546;42.674;23.284;2022-10-31T11:02:27;9.93;;;3.13;;
30818;SDS011;17546;42.674;23.284;2022-10-31T11:04:57;11.02;;;3.55;;
30818;SDS011;17546;42.674;23.284;2022-10-31T11:07:25;8.27;;;3.15;;
30818;SDS011;17546;42.674;23.284;2022-10-31T11:09:50;12.38;;;2.80;;
30818;SDS011;17546;42.674;23.284;2022-10-31T11:12:20;12.98;;;3.13;;
30818;SDS011;17546;42.674;23.284;2022-10-31T11:14:50;11.35;;;3.60;;
30818;SDS011;17546;42.674;23.284;2022-10-31T11:20:38;14.57;;;4.53;;
30818;SDS011;17546;42.674;23.284;2022-10-31T11:22:45;16.65;;;4.25;;
30818;SDS011;17546;42.674;23.284;2022-10-31T11:28:01;18.00;;;5.10;;
30818;SDS011;17546;42.674;23.284;2022-10-31T11:30:28;11.32;;;3.95;;
30818;SDS011;17546;42.674;23.284;2022-10-31T11:32:54;12.88;;;4.43;;
30818;SDS011;17546;42.674;23.284;2022-10-31T11:35:21;18.75;;;4.68;;
30818;SDS011;17546;42.674;23.284;2022-10-31T11:37:49;11.32;;;4.55;;
30818;SDS011;17546;42.674;23.284;2022-10-31T11:40:22;15.07;;;4.30;;
30818;SDS011;17546;42.674;23.284;2022-10-31T11:42:51;18.20;;;5.18;;
30818;SDS011;17546;42.674;23.284;2022-10-31T11:47:49;15.77;;;4.70;;
30818;SDS011;17546;42.674;23.284;2022-10-31T11:52:49;17.33;;;4.40;;
30818;SDS011;17546;42.674;23.284;2022-10-31T11:55:26;15.73;;;4.40;;
30818;SDS011;17546;42.674;23.284;2022-10-31T11:57:57;12.25;;;3.92;;
30818;SDS011;17546;42.674;23.284;2022-10-31T12:00:26;11.85;;;3.97;;
30818;SDS011;17546;42.674;23.284;2022-10-31T12:05:47;13.02;;;3.97;;
30818;SDS011;17546;42.674;23.284;2022-10-31T12:08:20;12.15;;;3.35;;
30818;SDS011;17546;42.674;23.284;2022-10-31T12:11:10;11.88;;;3.00;;
30818;SDS011;17546;42.674;23.284;2022-10-31T12:16:36;12.80;;;3.58;;
30818;SDS011;17546;42.674;23.284;2022-10-31T12:19:23;9.48;;;2.95;;
30818;SDS011;17546;42.674;23.284;2022-10-31T12:27:46;9.98;;;3.55;;
30818;SDS011;17546;42.674;23.284;2022-10-31T12:33:47;12.40;;;3.60;;
30818;SDS011;17546;42.674;23.284;2022-10-31T12:36:41;14.25;;;3.47;;
30818;SDS011;17546;42.674;23.284;2022-10-31T12:39:24;15.25;;;3.63;;
30818;SDS011;17546;42.674;23.284;2022-10-31T12:44:43;13.65;;;3.67;;
30818;SDS011;17546;42.674;23.284;2022-10-31T12:58:20;10.80;;;3.50;;
30818;SDS011;17546;42.674;23.284;2022-10-31T13:00:51;14.55;;;3.85;;
30818;SDS011;17546;42.674;23.284;2022-10-31T13:03:28;10.43;;;3.58;;
30818;SDS011;17546;42.674;23.284;2022-10-31T13:06:05;14.25;;;4.00;;
30818;SDS011;17546;42.674;23.284;2022-10-31T13:08:54;15.35;;;3.83;;
30818;SDS011;17546;42.674;23.284;2022-10-31T13:11:28;17.08;;;3.72;;
30818;SDS011;17546;42.674;23.284;2022-10-31T13:16:37;15.63;;;3.80;;
30818;SDS011;17546;42.674;23.284;2022-10-31T13:19:19;8.60;;;3.60;;
30818;SDS011;17546;42.674;23.284;2022-10-31T13:21:57;14.25;;;4.13;;
30818;SDS011;17546;42.674;23.284;2022-10-31T13:27:13;8.57;;;3.33;;
30818;SDS011;17546;42.674;23.284;2022-10-31T13:32:36;11.82;;;4.43;;
30818;SDS011;17546;42.674;23.284;2022-10-31T13:35:10;14.45;;;3.63;;
30818;SDS011;17546;42.674;23.284;2022-10-31T13:37:43;13.18;;;3.80;;
30818;SDS011;17546;42.674;23.284;2022-10-31T13:45:49;14.27;;;3.88;;
30818;SDS011;17546;42.674;23.284;2022-10-31T13:50:42;9.73;;;3.72;;
30818;SDS011;17546;42.674;23.284;2022-10-31T13:53:21;15.35;;;3.80;;
30818;SDS011;17546;42.674;23.284;2022-10-31T13:55:49;17.45;;;4.40;;
30818;SDS011;17546;42.674;23.284;2022-10-31T13:58:27;16.13;;;4.20;;
30818;SDS011;17546;42.674;23.284;2022-10-31T14:00:58;19.33;;;4.22;;
30818;SDS011;17546;42.674;23.284;2022-10-31T14:03:24;15.40;;;4.50;;
30818;SDS011;17546;42.674;23.284;2022-10-31T14:05:53;15.65;;;4.55;;
30818;SDS011;17546;42.674;23.284;2022-10-31T14:08:21;14.23;;;3.53;;
30818;SDS011;17546;42.674;23.284;2022-10-31T14:10:49;19.48;;;4.82;;
30818;SDS011;17546;42.674;23.284;2022-10-31T14:15:51;8.35;;;3.00;;
30818;SDS011;17546;42.674;23.284;2022-10-31T14:18:38;12.63;;;3.22;;
30818;SDS011;17546;42.674;23.284;2022-10-31T14:23:40;16.83;;;4.70;;
30818;SDS011;17546;42.674;23.284;2022-10-31T14:28:48;11.10;;;3.65;;
30818;SDS011;17546;42.674;23.284;2022-10-31T14:34:00;22.30;;;4.13;;
30818;SDS011;17546;42.674;23.284;2022-10-31T14:44:51;14.95;;;3.50;;
30818;SDS011;17546;42.674;23.284;2022-10-31T14:52:51;9.68;;;3.65;;
30818;SDS011;17546;42.674;23.284;2022-10-31T14:55:20;22.17;;;6.60;;
30818;SDS011;17546;42.674;23.284;2022-10-31T14:57:52;20.52;;;5.60;;
30818;SDS011;17546;42.674;23.284;2022-10-31T15:00:21;18.42;;;5.20;;
30818;SDS011;17546;42.674;23.284;2022-10-31T15:05:45;16.58;;;4.20;;
30818;SDS011;17546;42.674;23.284;2022-10-31T15:08:37;15.40;;;4.73;;
30818;SDS011;17546;42.674;23.284;2022-10-31T15:11:03;13.52;;;4.25;;
30818;SDS011;17546;42.674;23.284;2022-10-31T15:13:46;13.60;;;4.97;;
30818;SDS011;17546;42.674;23.284;2022-10-31T15:16:12;26.65;;;5.50;;
30818;SDS011;17546;42.674;23.284;2022-10-31T15:18:48;37.85;;;7.82;;
30818;SDS011;17546;42.674;23.284;2022-10-31T15:21:20;24.27;;;6.10;;
30818;SDS011;17546;42.674;23.284;2022-10-31T15:23:47;42.80;;;7.05;;
30818;SDS011;17546;42.674;23.284;2022-10-31T15:26:15;30.88;;;6.55;;
30818;SDS011;17546;42.674;23.284;2022-10-31T15:28:44;27.98;;;6.90;;
30818;SDS011;17546;42.674;23.284;2022-10-31T15:31:18;32.25;;;7.25;;
30818;SDS011;17546;42.674;23.284;2022-10-31T15:33:46;46.40;;;8.05;;
30818;SDS011;17546;42.674;23.284;2022-10-31T15:36:21;38.00;;;8.27;;
30818;SDS011;17546;42.674;23.284;2022-10-31T15:38:48;28.50;;;8.23;;
30818;SDS011;17546;42.674;23.284;2022-10-31T15:41:19;32.03;;;8.05;;
30818;SDS011;17546;42.674;23.284;2022-10-31T15:43:53;33.45;;;8.60;;
30818;SDS011;17546;42.674;23.284;2022-10-31T15:46:19;31.88;;;7.10;;
30818;SDS011;17546;42.674;23.284;2022-10-31T15:48:45;31.20;;;8.25;;
30818;SDS011;17546;42.674;23.284;2022-10-31T15:51:12;29.85;;;7.35;;
30818;SDS011;17546;42.674;23.284;2022-10-31T15:56:12;30.42;;;7.28;;
30818;SDS011;17546;42.674;23.284;2022-10-31T15:58:45;29.88;;;7.70;;
30818;SDS011;17546;42.674;23.284;2022-10-31T16:04:01;34.78;;;7.97;;
30818;SDS011;17546;42.674;23.284;2022-10-31T16:06:44;38.78;;;8.30;;
30818;SDS011;17546;42.674;23.284;2022-10-31T16:09:22;26.55;;;7.10;;
30818;SDS011;17546;42.674;23.284;2022-10-31T16:11:48;33.75;;;8.70;;
30818;SDS011;17546;42.674;23.284;2022-10-31T16:14:18;39.55;;;8.30;;
30818;SDS011;17546;42.674;23.284;2022-10-31T16:16:49;45.80;;;9.07;;
30818;SDS011;17546;42.674;23.284;2022-10-31T16:19:19;25.63;;;7.07;;
30818;SDS011;17546;42.674;23.284;2022-10-31T16:21:47;36.35;;;9.27;;
30818;SDS011;17546;42.674;23.284;2022-10-31T16:24:22;30.10;;;9.80;;
30818;SDS011;17546;42.674;23.284;2022-10-31T16:29:52;28.65;;;9.10;;
30818;SDS011;17546;42.674;23.284;2022-10-31T16:37:41;32.88;;;9.93;;
30818;SDS011;17546;42.674;23.284;2022-10-31T16:40:11;55.47;;;12.20;;
30818;SDS011;17546;42.674;23.284;2022-10-31T16:42:38;39.08;;;10.25;;
30818;SDS011;17546;42.674;23.284;2022-10-31T16:45:04;32.42;;;9.52;;
30818;SDS011;17546;42.674;23.284;2022-10-31T16:47:31;35.97;;;10.23;;
30818;SDS011;17546;42.674;23.284;2022-10-31T16:49:56;44.20;;;10.10;;
30818;SDS011;17546;42.674;23.284;2022-10-31T16:52:24;41.47;;;12.88;;
30818;SDS011;17546;42.674;23.284;2022-10-31T16:54:50;59.90;;;15.00;;
30818;SDS011;17546;42.674;23.284;2022-10-31T16:57:17;43.80;;;12.35;;
30818;SDS011;17546;42.674;23.284;2022-10-31T16:59:48;29.92;;;9.45;;
30818;SDS011;17546;42.674;23.284;2022-10-31T17:02:18;30.83;;;9.07;;
30818;SDS011;17546;42.674;23.284;2022-10-31T17:04:44;27.75;;;8.65;;
30818;SDS011;17546;42.674;23.284;2022-10-31T17:07:10;46.17;;;9.82;;
30818;SDS011;17546;42.674;23.284;2022-10-31T17:09:35;41.67;;;9.43;;
30818;SDS011;17546;42.674;23.284;2022-10-31T17:12:00;36.70;;;9.80;;
30818;SDS011;17546;42.674;23.284;2022-10-31T17:14:26;39.35;;;10.48;;
30818;SDS011;17546;42.674;23.284;2022-10-31T17:16:52;51.67;;;9.77;;
30818;SDS011;17546;42.674;23.284;2022-10-31T17:19:17;33.47;;;10.27;;
30818;SDS011;17546;42.674;23.284;2022-10-31T17:21:43;37.22;;;10.80;;
30818;SDS011;17546;42.674;23.284;2022-10-31T17:24:11;36.13;;;9.98;;
30818;SDS011;17546;42.674;23.284;2022-10-31T17:26:38;42.97;;;10.32;;